Time;durP1;ratioP1;P1;durP2;ratioP2;P2;SDS_P1;SDS_P2;PMS_P1;PMS_P2;Temp;Humidity;BMP_temperature;BMP_pressure;BME280_temperature;BME280_humidity;BME280_pressure;Samples;Min_cycle;Max_cycle;Signal;HPM_P1;HPM_P2
2023/03/30 00:01:15;;;;;;;24.33;12.95;;;9.60;99.90;;;;;;5084485;28;20661;-67
2023/03/30 00:03:42;;;;;;;23.98;13.15;;;9.70;99.90;;;;;;5089988;28;20410;-66
2023/03/30 00:06:09;;;;;;;25.45;12.63;;;9.60;99.90;;;;;;5086004;28;20043;-68
2023/03/30 00:08:36;;;;;;;27.38;12.30;;;9.60;99.90;;;;;;5080707;28;20479;-66
2023/03/30 00:11:12;;;;;;;27.10;12.85;;;9.70;99.90;;;;;;5078832;28;20239;-66
2023/03/30 00:13:38;;;;;;;23.65;12.05;;;9.80;99.90;;;;;;5078749;28;20047;-69
2023/03/30 00:16:05;;;;;;;23.27;12.50;;;9.70;99.90;;;;;;5073083;28;20047;-68
2023/03/30 00:18:33;;;;;;;22.73;11.48;;;9.80;99.90;;;;;;5071822;28;20069;-67
2023/03/30 00:20:59;;;;;;;21.10;11.90;;;9.80;99.90;;;;;;5088765;28;20527;-67
2023/03/30 00:23:25;;;;;;;21.20;11.48;;;9.80;99.90;;;;;;5087352;28;20134;-67
2023/03/30 00:25:50;;;;;;;19.48;10.07;;;9.80;99.90;;;;;;5089521;28;20043;-67
2023/03/30 00:28:16;;;;;;;21.05;11.05;;;9.90;99.90;;;;;;5089828;28;20044;-67
2023/03/30 00:30:42;;;;;;;17.63;9.60;;;9.90;99.90;;;;;;5073478;28;20031;-66
2023/03/30 00:33:07;;;;;;;18.40;9.85;;;10.10;99.90;;;;;;5092390;28;20036;-67
2023/03/30 00:35:33;;;;;;;19.45;10.07;;;10.00;99.90;;;;;;5088795;28;20032;-66
2023/03/30 00:38:00;;;;;;;18.35;8.70;;;10.10;99.90;;;;;;5069657;28;20379;-67
2023/03/30 00:40:27;;;;;;;15.32;9.18;;;10.10;99.90;;;;;;5087613;28;20100;-65
2023/03/30 00:42:58;;;;;;;14.55;8.85;;;10.10;99.90;;;;;;5088279;28;20054;-66
2023/03/30 00:45:26;;;;;;;16.92;9.32;;;10.20;99.90;;;;;;5085924;28;20051;-66
2023/03/30 00:48:16;;;;;;;15.70;8.00;;;10.30;99.90;;;;;;5091862;28;20047;-69
2023/03/30 00:50:42;;;;;;;13.85;7.78;;;10.30;99.90;;;;;;5076454;28;20051;-67
2023/03/30 00:53:15;;;;;;;16.00;8.00;;;10.20;99.90;;;;;;5087496;28;20164;-67
2023/03/30 00:55:42;;;;;;;15.27;8.55;;;10.20;99.90;;;;;;5077535;28;20081;-67
2023/03/30 00:58:08;;;;;;;14.40;7.78;;;10.20;99.90;;;;;;5078925;28;20823;-67
2023/03/30 01:00:37;;;;;;;11.43;6.97;;;10.10;99.90;;;;;;5084419;28;20036;-67
2023/03/30 01:03:10;;;;;;;14.70;6.85;;;10.10;99.90;;;;;;5082418;28;20078;-67
2023/03/30 01:05:38;;;;;;;11.05;6.40;;;10.30;99.90;;;;;;5066784;28;20032;-65
2023/03/30 01:08:06;;;;;;;11.57;6.85;;;10.20;99.90;;;;;;5082087;28;20068;-67
2023/03/30 01:10:33;;;;;;;12.45;6.75;;;10.30;99.90;;;;;;5086083;28;20058;-68
2023/03/30 01:12:58;;;;;;;11.05;6.28;;;10.40;99.90;;;;;;5077953;28;20044;-66
2023/03/30 11:53:31;;;;;;;10.15;1.92;;;14.70;95.60;;;;;;1289980;26;20045;-70
2023/03/30 11:56:10;;;;;;;8.50;1.60;;;14.90;94.90;;;;;;5024683;28;20077;-68
2023/03/30 11:58:52;;;;;;;6.18;0.95;;;14.90;92.90;;;;;;5031869;28;20046;-71
2023/03/30 12:01:41;;;;;;;6.97;1.40;;;14.80;92.80;;;;;;5014281;28;20056;-70
2023/03/30 12:04:17;;;;;;;5.77;1.57;;;14.70;93.20;;;;;;5009151;28;20650;-66
2023/03/30 12:07:00;;;;;;;9.63;2.00;;;14.60;96.70;;;;;;4996739;28;20450;-68
2023/03/30 12:09:33;;;;;;;7.28;0.95;;;14.70;93.90;;;;;;5020973;28;20067;-67
2023/03/30 12:12:16;;;;;;;8.40;1.10;;;14.90;94.20;;;;;;5014589;28;20037;-67
2023/03/30 12:14:49;;;;;;;7.32;1.25;;;14.90;92.00;;;;;;5015049;28;20073;-72
2023/03/30 12:17:36;;;;;;;11.60;1.73;;;14.90;92.50;;;;;;5014907;28;20047;-72
2023/03/30 12:20:30;;;;;;;3.85;1.05;;;14.90;91.80;;;;;;5015203;28;20037;-68
2023/03/30 12:23:20;;;;;;;5.88;1.38;;;14.50;91.80;;;;;;5029325;28;20053;-66
2023/03/30 12:26:06;;;;;;;4.23;1.10;;;14.50;95.10;;;;;;4996427;28;20049;-66
2023/03/30 12:28:57;;;;;;;7.20;1.55;;;14.50;95.00;;;;;;5011901;28;20045;-67
2023/03/30 12:31:43;;;;;;;7.97;1.75;;;14.50;94.50;;;;;;5009794;28;20041;-68
2023/03/30 12:34:09;;;;;;;6.75;1.67;;;14.60;96.40;;;;;;5012218;28;20037;-67
2023/03/30 12:36:48;;;;;;;11.43;1.52;;;14.70;97.40;;;;;;5032024;28;20043;-68
2023/03/30 12:39:25;;;;;;;12.55;1.77;;;14.80;93.50;;;;;;5012098;28;20120;-67
2023/03/30 12:42:13;;;;;;;7.68;1.45;;;14.80;93.20;;;;;;5010825;28;20500;-66
2023/03/30 12:44:46;;;;;;;6.95;1.27;;;15.00;92.70;;;;;;5007304;28;20041;-71
2023/03/30 12:47:32;;;;;;;7.55;1.25;;;15.10;91.00;;;;;;5008337;28;20041;-71
2023/03/30 12:50:33;;;;;;;5.22;1.33;;;15.30;90.40;;;;;;5014674;28;20116;-67
2023/03/30 12:53:36;;;;;;;11.80;1.70;;;15.50;86.90;;;;;;5010666;28;20544;-69
2023/03/30 12:56:07;;;;;;;11.63;1.40;;;15.90;86.30;;;;;;5029790;28;20041;-66
2023/03/30 12:59:07;;;;;;;9.05;1.52;;;16.30;81.00;;;;;;5012132;28;20056;-67
2023/03/30 13:01:36;;;;;;;8.80;1.67;;;16.70;79.80;;;;;;5011699;28;20486;-67
2023/03/30 13:04:08;;;;;;;4.97;1.20;;;16.70;75.10;;;;;;5014317;28;20065;-65
2023/03/30 13:06:47;;;;;;;8.40;1.40;;;17.10;80.30;;;;;;5014380;28;20037;-67
2023/03/30 13:09:19;;;;;;;9.57;1.33;;;17.20;70.10;;;;;;5011800;28;20730;-69
2023/03/30 13:12:26;;;;;;;4.20;1.15;;;17.60;71.50;;;;;;5014000;28;20060;-69
2023/03/30 13:15:01;;;;;;;8.48;1.75;;;17.80;66.70;;;;;;5030143;28;20049;-69
2023/03/30 13:17:47;;;;;;;10.60;1.52;;;18.50;66.10;;;;;;5013434;28;20045;-68
2023/03/30 13:20:15;;;;;;;10.63;1.88;;;18.40;62.80;;;;;;5007093;28;20045;-68
2023/03/30 13:22:58;;;;;;;7.18;1.52;;;17.80;65.70;;;;;;5024636;28;20065;-66
2023/03/30 13:25:28;;;;;;;8.60;1.83;;;17.40;70.10;;;;;;5027554;28;20373;-67
2023/03/30 13:27:57;;;;;;;8.60;1.42;;;17.10;71.40;;;;;;5014289;28;20531;-69
2023/03/30 13:30:28;;;;;;;8.20;1.67;;;17.00;76.70;;;;;;5027798;28;20069;-68
2023/03/30 13:33:16;;;;;;;8.05;1.77;;;16.90;74.10;;;;;;5013980;28;20041;-68
2023/03/30 13:36:07;;;;;;;10.55;1.95;;;17.10;68.10;;;;;;5031241;28;20361;-66
2023/03/30 13:38:41;;;;;;;11.23;1.40;;;17.20;67.30;;;;;;5012102;28;20080;-66
2023/03/30 13:41:12;;;;;;;7.35;1.80;;;17.70;67.60;;;;;;5029643;28;20396;-67
2023/03/30 13:43:51;;;;;;;7.22;1.10;;;17.20;69.50;;;;;;5012291;28;20124;-67
2023/03/30 13:46:29;;;;;;;8.48;1.08;;;17.30;73.00;;;;;;5011088;28;20049;-67
2023/03/30 13:48:54;;;;;;;6.15;1.80;;;18.40;68.10;;;;;;5011421;28;20400;-68
2023/03/30 13:51:26;;;;;;;7.38;1.65;;;18.90;66.80;;;;;;5012445;28;20051;-68
2023/03/30 13:53:57;;;;;;;12.85;1.55;;;18.50;65.40;;;;;;5012859;28;20057;-66
2023/03/30 13:56:26;;;;;;;7.38;1.65;;;17.80;63.30;;;;;;5030105;28;20057;-69
2023/03/30 13:59:09;;;;;;;6.75;1.25;;;18.00;65.00;;;;;;5028128;28;20041;-68
2023/03/30 14:01:36;;;;;;;9.63;1.48;;;17.10;64.70;;;;;;5009071;28;20405;-67
2023/03/30 14:04:03;;;;;;;11.32;1.55;;;17.20;70.10;;;;;;5012897;28;20033;-66
2023/03/30 14:06:33;;;;;;;5.95;1.50;;;17.50;73.40;;;;;;5028282;28;20128;-65
2023/03/30 14:09:09;;;;;;;6.88;1.65;;;17.50;70.10;;;;;;5029847;28;20077;-69
2023/03/30 14:11:44;;;;;;;8.77;1.42;;;16.60;70.30;;;;;;5012190;28;20046;-67
2023/03/30 14:14:45;;;;;;;13.02;2.10;;;16.50;74.70;;;;;;4998873;28;20118;-66
2023/03/30 14:17:23;;;;;;;10.45;2.35;;;16.70;75.90;;;;;;5009418;28;20060;-68
2023/03/30 14:19:51;;;;;;;13.20;2.38;;;16.90;71.60;;;;;;5009897;28;20041;-68
2023/03/30 14:22:23;;;;;;;9.98;1.88;;;16.40;74.40;;;;;;5013761;28;20041;-65
2023/03/30 14:24:57;;;;;;;8.38;1.70;;;16.90;76.00;;;;;;4999309;28;20041;-67
2023/03/30 14:27:23;;;;;;;9.50;1.70;;;16.30;74.20;;;;;;5014992;28;20038;-67
2023/03/30 14:29:50;;;;;;;10.75;1.90;;;16.20;74.40;;;;;;5028083;28;20099;-68
2023/03/30 14:32:19;;;;;;;10.68;1.90;;;16.00;77.00;;;;;;5015313;28;20420;-69
2023/03/30 14:34:50;;;;;;;13.32;2.50;;;15.80;81.60;;;;;;5031503;28;20049;-67
2023/03/30 14:37:16;;;;;;;9.38;1.77;;;15.70;79.60;;;;;;5026718;28;20087;-67
2023/03/30 14:39:50;;;;;;;10.27;1.85;;;15.30;83.60;;;;;;5031619;28;20029;-66
2023/03/30 14:42:19;;;;;;;10.65;1.80;;;15.20;89.00;;;;;;5032616;28;20085;-69
2023/03/30 14:44:47;;;;;;;10.23;1.73;;;15.40;87.30;;;;;;5025427;28;20124;-66
2023/03/30 14:47:15;;;;;;;9.15;1.58;;;15.70;89.30;;;;;;5028208;28;20037;-68
2023/03/30 14:49:42;;;;;;;14.45;1.92;;;15.30;90.00;;;;;;5014684;28;20048;-67
2023/03/30 14:52:13;;;;;;;10.98;1.92;;;15.50;86.20;;;;;;5013371;28;20813;-69
2023/03/30 14:54:40;;;;;;;7.20;1.15;;;15.40;89.00;;;;;;5033224;28;20069;-67
2023/03/30 14:57:06;;;;;;;12.75;1.75;;;16.10;88.20;;;;;;5032082;28;20041;-67
2023/03/30 14:59:37;;;;;;;13.05;1.55;;;15.60;88.60;;;;;;5016325;28;20069;-66
2023/03/30 15:02:03;;;;;;;9.50;2.30;;;15.30;87.80;;;;;;5013409;28;20502;-68
2023/03/30 15:04:35;;;;;;;9.77;1.90;;;15.10;89.80;;;;;;5033191;28;20037;-66
2023/03/30 15:07:01;;;;;;;7.15;1.80;;;14.90;91.00;;;;;;5016186;28;20037;-66
2023/03/30 15:09:26;;;;;;;7.32;1.10;;;14.70;91.50;;;;;;5033439;28;20558;-67
2023/03/30 15:11:58;;;;;;;9.13;1.92;;;14.60;92.80;;;;;;5032028;28;20116;-67
2023/03/30 15:14:26;;;;;;;7.45;1.50;;;14.60;93.10;;;;;;5016771;28;20052;-65
2023/03/30 15:16:55;;;;;;;8.52;1.23;;;14.60;94.30;;;;;;5015184;28;20037;-65
2023/03/30 15:19:34;;;;;;;14.40;2.05;;;14.70;95.10;;;;;;5034414;28;20060;-67
2023/03/30 15:22:03;;;;;;;8.65;1.60;;;14.60;93.40;;;;;;5015055;28;20517;-69
2023/03/30 15:24:35;;;;;;;13.13;2.25;;;14.60;93.60;;;;;;5014762;28;20091;-68
2023/03/30 15:27:05;;;;;;;9.25;2.20;;;14.50;93.80;;;;;;5033367;28;20041;-66
2023/03/30 15:29:31;;;;;;;13.80;2.23;;;14.50;94.10;;;;;;5016035;28;20041;-66
2023/03/30 15:32:15;;;;;;;11.98;2.42;;;14.50;95.40;;;;;;5030611;28;20306;-65
2023/03/30 15:35:13;;;;;;;11.73;1.58;;;14.30;96.30;;;;;;5034087;28;20045;-66
2023/03/30 15:37:59;;;;;;;8.77;1.88;;;14.30;96.60;;;;;;5000128;28;20095;-66
2023/03/30 15:40:29;;;;;;;10.50;1.70;;;14.20;97.30;;;;;;5011418;28;20045;-66
2023/03/30 15:43:32;;;;;;;10.55;1.85;;;14.30;98.20;;;;;;5018549;28;20068;-65
2023/03/30 15:46:11;;;;;;;12.30;3.00;;;14.30;98.10;;;;;;4950579;28;20376;-66
2023/03/30 15:48:52;;;;;;;7.60;2.13;;;14.30;99.00;;;;;;5009479;28;20104;-67
2023/03/30 15:51:24;;;;;;;12.27;1.85;;;14.30;99.90;;;;;;5032113;28;20049;-67
2023/03/30 15:53:58;;;;;;;11.25;1.98;;;14.30;99.20;;;;;;5028898;28;20942;-66
2023/03/30 15:56:36;;;;;;;7.82;1.73;;;14.20;99.90;;;;;;5027492;28;20046;-67
2023/03/30 15:59:02;;;;;;;8.98;1.92;;;14.20;99.90;;;;;;5013833;28;20087;-68
2023/03/30 16:01:51;;;;;;;6.47;1.63;;;14.20;99.10;;;;;;5014367;28;20037;-67
2023/03/30 16:04:19;;;;;;;9.45;2.65;;;14.10;98.80;;;;;;4997538;28;20037;-66
2023/03/30 16:06:44;;;;;;;11.55;2.35;;;14.10;99.90;;;;;;5030135;28;20042;-68
2023/03/30 16:09:10;;;;;;;9.77;1.80;;;14.10;99.60;;;;;;5011643;28;20048;-66
2023/03/30 16:11:36;;;;;;;9.68;2.67;;;14.00;99.90;;;;;;5013913;28;20041;-67
2023/03/30 16:14:05;;;;;;;5.80;1.77;;;13.90;99.90;;;;;;5031654;28;20056;-67
2023/03/30 16:16:32;;;;;;;10.52;2.33;;;13.80;99.90;;;;;;5026280;28;20400;-66
2023/03/30 16:18:57;;;;;;;11.43;2.42;;;13.80;99.90;;;;;;5031469;28;20044;-66
2023/03/30 16:21:23;;;;;;;14.73;3.08;;;13.80;99.90;;;;;;5005192;28;20063;-65
2023/03/30 16:23:52;;;;;;;7.53;1.98;;;13.80;99.90;;;;;;4993089;28;20484;-67
2023/03/30 16:26:18;;;;;;;12.05;2.35;;;13.70;99.90;;;;;;5026893;28;20673;-65
2023/03/30 16:28:43;;;;;;;16.77;2.03;;;13.60;99.90;;;;;;5023139;28;20037;-66
2023/03/30 16:31:19;;;;;;;7.97;1.73;;;13.70;99.90;;;;;;4992643;28;20042;-65
2023/03/30 16:33:45;;;;;;;10.50;2.20;;;13.70;99.90;;;;;;5011877;28;20530;-68
2023/03/30 16:36:17;;;;;;;10.20;1.80;;;13.60;99.90;;;;;;5002620;28;20116;-66
2023/03/30 16:38:43;;;;;;;17.67;1.90;;;13.60;99.90;;;;;;4994581;28;20408;-66
2023/03/30 16:41:14;;;;;;;9.60;2.00;;;13.50;99.90;;;;;;5026204;28;20404;-65
2023/03/30 16:43:40;;;;;;;14.57;2.33;;;13.50;99.90;;;;;;5032408;28;20037;-67
2023/03/30 16:46:06;;;;;;;9.10;2.05;;;13.40;99.90;;;;;;5009310;28;20062;-69
2023/03/30 16:48:31;;;;;;;12.82;2.17;;;13.40;99.90;;;;;;5014094;28;20167;-64
2023/03/30 16:50:57;;;;;;;10.18;1.55;;;13.40;99.90;;;;;;5029606;28;20124;-66
2023/03/30 16:53:23;;;;;;;10.63;1.88;;;13.40;99.90;;;;;;5011550;28;20049;-67
2023/03/30 16:55:49;;;;;;;13.18;1.88;;;13.30;99.90;;;;;;5028784;28;20057;-64
2023/03/30 16:58:15;;;;;;;11.48;1.80;;;13.30;99.90;;;;;;5031926;28;20045;-65
2023/03/30 17:00:48;;;;;;;9.13;2.05;;;13.30;99.90;;;;;;5026587;28;20056;-65
2023/03/30 17:03:14;;;;;;;13.68;1.70;;;13.20;99.90;;;;;;5030193;28;20416;-66
2023/03/30 17:05:40;;;;;;;7.70;2.33;;;13.30;99.90;;;;;;5012029;28;20041;-65
2023/03/30 17:08:22;;;;;;;11.88;2.22;;;13.20;99.90;;;;;;5008566;28;20144;-66
2023/03/30 17:10:48;;;;;;;9.75;1.83;;;13.20;99.90;;;;;;5014017;28;20087;-66
2023/03/30 17:13:14;;;;;;;9.63;2.15;;;13.10;99.90;;;;;;5029030;28;20045;-68
2023/03/30 17:15:40;;;;;;;11.18;2.33;;;13.00;99.90;;;;;;5012997;28;20037;-67
2023/03/30 17:18:13;;;;;;;8.18;1.73;;;12.90;99.90;;;;;;4996981;28;20157;-66
2023/03/30 17:20:44;;;;;;;16.42;2.03;;;12.90;99.90;;;;;;5014430;28;20054;-67
2023/03/30 17:23:10;;;;;;;16.00;2.72;;;12.90;99.90;;;;;;5030925;28;20037;-69
2023/03/30 17:25:38;;;;;;;15.68;2.25;;;12.90;99.90;;;;;;5029196;28;20044;-66
2023/03/30 17:28:07;;;;;;;15.48;2.92;;;12.80;99.90;;;;;;5030935;28;20092;-67
2023/03/30 17:30:35;;;;;;;11.90;2.42;;;12.80;99.90;;;;;;5008799;28;20499;-67
2023/03/30 17:33:01;;;;;;;11.18;2.42;;;12.80;99.90;;;;;;5008940;28;20104;-67
2023/03/30 17:35:27;;;;;;;19.95;3.08;;;12.70;99.90;;;;;;5004234;28;20125;-67
2023/03/30 17:37:56;;;;;;;17.58;2.67;;;12.80;99.90;;;;;;5029171;28;20041;-67
2023/03/30 17:40:28;;;;;;;10.70;2.30;;;12.70;99.90;;;;;;5015200;28;20100;-68
2023/03/30 17:42:54;;;;;;;11.52;1.67;;;12.70;99.90;;;;;;5025292;28;20076;-66
2023/03/30 17:45:23;;;;;;;14.20;2.53;;;12.70;99.90;;;;;;5029616;28;20038;-66
2023/03/30 17:47:49;;;;;;;15.80;2.28;;;12.60;99.90;;;;;;5011233;28;20050;-66
2023/03/30 17:50:20;;;;;;;17.80;3.30;;;12.40;99.90;;;;;;5014792;28;20040;-67
2023/03/30 17:52:46;;;;;;;;;;;12.30;99.90;;;;;;5016704;28;20041;-67
2023/03/30 17:55:12;;;;;;;10.55;1.85;;;12.20;99.90;;;;;;5016383;28;19967;-65
2023/03/30 17:57:38;;;;;;;12.20;2.80;;;12.00;99.90;;;;;;5020880;28;20850;-65
2023/03/30 18:00:18;;;;;;;16.63;2.33;;;11.90;99.90;;;;;;5015530;28;20046;-65
2023/03/30 18:02:44;;;;;;;15.05;3.15;;;11.90;99.90;;;;;;5014434;28;20092;-67
2023/03/30 18:05:10;;;;;;;13.13;2.30;;;11.90;99.90;;;;;;5015009;28;20076;-66
2023/03/30 18:07:36;;;;;;;9.65;2.55;;;12.00;99.90;;;;;;5013572;28;20051;-68
2023/03/30 18:10:14;;;;;;;11.05;2.60;;;11.90;99.90;;;;;;4997448;28;20045;-65
2023/03/30 18:12:39;;;;;;;9.10;2.22;;;11.90;99.90;;;;;;5030432;28;20091;-66
2023/03/30 18:15:06;;;;;;;19.90;3.47;;;12.00;99.90;;;;;;5031606;28;20049;-66
2023/03/30 18:17:31;;;;;;;14.45;1.92;;;12.00;99.90;;;;;;5022206;28;20100;-65
2023/03/30 18:19:59;;;;;;;13.02;2.22;;;12.00;99.90;;;;;;4989939;28;20049;-65
2023/03/30 18:22:24;;;;;;;8.88;2.72;;;11.90;99.90;;;;;;4992586;28;20048;-65
2023/03/30 18:24:50;;;;;;;8.13;2.08;;;11.90;99.90;;;;;;4974103;28;20049;-65
2023/03/30 18:27:16;;;;;;;13.27;2.72;;;11.90;99.90;;;;;;4995150;28;20040;-67
2023/03/30 18:29:42;;;;;;;19.02;3.05;;;11.90;99.90;;;;;;4993769;28;20120;-66
2023/03/30 18:32:07;;;;;;;12.18;3.00;;;12.00;99.90;;;;;;5022006;28;20034;-66
2023/03/30 18:34:33;;;;;;;12.65;2.65;;;12.00;99.90;;;;;;5030123;28;20038;-65
2023/03/30 18:36:59;;;;;;;17.17;3.97;;;12.00;99.90;;;;;;5029208;28;20047;-68
2023/03/30 18:39:24;;;;;;;14.15;2.58;;;12.00;99.90;;;;;;5008514;28;20051;-65
2023/03/30 18:41:50;;;;;;;12.35;3.95;;;12.10;99.90;;;;;;5030206;28;20464;-66
2023/03/30 18:44:16;;;;;;;12.63;2.00;;;12.10;99.90;;;;;;5017127;28;20080;-65
2023/03/30 18:46:44;;;;;;;15.75;2.42;;;12.10;99.90;;;;;;5023965;28;20044;-65
2023/03/30 18:49:16;;;;;;;18.00;4.13;;;12.10;99.90;;;;;;5012089;28;20045;-65
2023/03/30 18:51:41;;;;;;;15.52;3.40;;;12.10;99.90;;;;;;5016666;28;20129;-67
2023/03/30 18:54:07;;;;;;;16.25;6.70;;;12.10;99.90;;;;;;5007207;28;20136;-68
2023/03/30 18:56:33;;;;;;;18.58;5.95;;;12.20;99.90;;;;;;4993391;28;20053;-67
2023/03/30 18:59:05;;;;;;;10.93;3.65;;;12.20;99.90;;;;;;5010531;28;22254;-66
2023/03/30 19:01:33;;;;;;;13.30;3.85;;;12.20;99.90;;;;;;4985030;28;20520;-65
2023/03/30 19:03:58;;;;;;;14.55;3.20;;;12.20;99.90;;;;;;4991402;28;20401;-67
2023/03/30 19:06:24;;;;;;;13.05;2.47;;;12.20;99.90;;;;;;4994117;28;20038;-66
2023/03/30 19:08:50;;;;;;;11.80;1.90;;;12.20;99.90;;;;;;4993476;28;20034;-68
2023/03/30 19:11:20;;;;;;;8.55;1.92;;;12.20;99.90;;;;;;5009343;28;20069;-65
2023/03/30 19:13:46;;;;;;;;;;;12.20;99.90;;;;;;5002650;28;20531;-67
2023/03/30 19:16:12;;;;;;;9.40;2.20;;;12.20;99.90;;;;;;4985730;28;19957;-65
2023/03/30 19:18:37;;;;;;;13.25;2.28;;;12.20;99.90;;;;;;5010727;28;20045;-67
2023/03/30 19:21:03;;;;;;;11.57;2.33;;;12.20;99.90;;;;;;4992780;28;20042;-66
2023/03/30 19:23:29;;;;;;;10.68;2.25;;;12.20;99.90;;;;;;4992447;28;20041;-65
2023/03/30 19:25:54;;;;;;;12.63;1.92;;;12.10;99.90;;;;;;5010571;28;20057;-66
2023/03/30 19:28:20;;;;;;;8.38;1.70;;;12.10;99.90;;;;;;5005556;28;20048;-65
2023/03/30 19:30:47;;;;;;;9.57;1.60;;;12.10;99.90;;;;;;5009186;28;20420;-67
2023/03/30 19:33:15;;;;;;;10.60;2.05;;;12.00;99.90;;;;;;4982549;28;20042;-66
2023/03/30 19:35:42;;;;;;;11.43;1.67;;;12.00;99.90;;;;;;4988798;28;20038;-65
2023/03/30 19:38:08;;;;;;;11.93;1.85;;;12.00;99.90;;;;;;4999145;28;20044;-65
2023/03/30 19:40:35;;;;;;;7.78;1.70;;;11.90;99.90;;;;;;5004219;28;20029;-65
2023/03/30 19:43:00;;;;;;;10.32;1.58;;;11.90;99.90;;;;;;5016006;28;20041;-66
2023/03/30 19:45:26;;;;;;;10.05;2.00;;;11.80;99.90;;;;;;4994746;28;20104;-65
2023/03/30 19:47:51;;;;;;;9.80;1.80;;;11.80;99.90;;;;;;5002756;28;20065;-66
2023/03/30 19:50:21;;;;;;;10.68;1.90;;;11.70;99.90;;;;;;5007758;28;20045;-68
2023/03/30 19:52:49;;;;;;;8.05;1.42;;;11.70;99.90;;;;;;4993435;28;20501;-65
2023/03/30 19:55:16;;;;;;;14.25;2.88;;;11.60;99.90;;;;;;5002834;28;20357;-66
2023/03/30 19:57:42;;;;;;;7.07;1.75;;;11.60;99.90;;;;;;5027500;28;20033;-65
2023/03/30 20:00:14;;;;;;;14.10;1.92;;;11.50;99.90;;;;;;5029097;28;20456;-66
2023/03/30 20:02:40;;;;;;;13.07;1.52;;;11.50;99.90;;;;;;5030008;28;20049;-66
2023/03/30 20:05:08;;;;;;;7.22;1.60;;;11.40;99.90;;;;;;4993784;28;20033;-65
2023/03/30 20:07:34;;;;;;;5.57;1.48;;;11.30;99.90;;;;;;5026415;28;20030;-65
2023/03/30 20:10:00;;;;;;;9.05;1.50;;;11.30;99.90;;;;;;5029074;28;20370;-67
2023/03/30 20:12:25;;;;;;;5.95;1.25;;;11.20;99.90;;;;;;5002663;28;20042;-65
2023/03/30 20:14:51;;;;;;;9.40;2.30;;;11.20;99.90;;;;;;5014733;28;20092;-66
2023/03/30 20:17:17;;;;;;;8.77;1.45;;;11.20;99.90;;;;;;5029745;28;20400;-67
2023/03/30 20:19:42;;;;;;;10.80;1.42;;;11.20;99.90;;;;;;5010555;28;20117;-66
2023/03/30 20:22:08;;;;;;;7.72;1.58;;;11.20;99.90;;;;;;5010783;28;20253;-66
2023/03/30 20:24:35;;;;;;;8.60;1.92;;;11.20;99.90;;;;;;5020318;28;20037;-66
2023/03/30 20:27:01;;;;;;;7.35;1.10;;;11.10;99.90;;;;;;5010225;28;20072;-66
2023/03/30 20:29:26;;;;;;;8.73;1.30;;;11.10;99.90;;;;;;5002742;28;20053;-66
2023/03/30 20:31:52;;;;;;;7.10;1.73;;;11.10;99.90;;;;;;5015061;28;20454;-66
2023/03/30 20:34:18;;;;;;;8.73;1.65;;;11.00;99.90;;;;;;5022369;28;20041;-67
2023/03/30 20:36:46;;;;;;;7.25;1.45;;;10.90;99.90;;;;;;5013151;28;20045;-66
2023/03/30 20:39:12;;;;;;;8.02;1.35;;;10.90;99.90;;;;;;5007911;28;20057;-66
2023/03/30 20:41:38;;;;;;;8.73;1.15;;;10.90;99.90;;;;;;5029407;28;20304;-67
2023/03/30 20:44:10;;;;;;;8.80;1.60;;;10.90;99.90;;;;;;5008764;28;20083;-65
2023/03/30 20:46:42;;;;;;;8.63;1.48;;;10.80;99.90;;;;;;5026750;28;20339;-66
2023/03/30 20:49:10;;;;;;;8.82;1.67;;;10.70;99.90;;;;;;5001004;28;20084;-65
2023/03/30 20:51:36;;;;;;;9.90;1.85;;;10.80;99.90;;;;;;5026963;28;20447;-65
2023/03/30 20:54:03;;;;;;;10.00;1.40;;;10.80;99.90;;;;;;5001094;28;20112;-66
2023/03/30 20:56:29;;;;;;;9.38;1.67;;;10.90;99.90;;;;;;5003983;28;20053;-66
2023/03/30 20:58:55;;;;;;;11.70;1.55;;;11.00;99.90;;;;;;4985389;28;20049;-66
2023/03/30 21:01:27;;;;;;;14.57;2.20;;;11.00;99.90;;;;;;5002353;28;20096;-66
2023/03/30 21:04:00;;;;;;;5.88;1.25;;;11.10;99.90;;;;;;4986937;28;20056;-66
2023/03/30 21:06:29;;;;;;;6.30;1.50;;;11.10;99.90;;;;;;4982852;28;20116;-67
2023/03/30 21:08:57;;;;;;;9.55;1.42;;;11.10;99.90;;;;;;5005756;28;20369;-66
2023/03/30 21:11:26;;;;;;;9.63;1.77;;;11.10;99.90;;;;;;4990366;28;20120;-66
2023/03/30 21:13:53;;;;;;;7.57;1.25;;;11.10;99.90;;;;;;5005215;28;20141;-67
2023/03/30 21:16:19;;;;;;;5.80;1.42;;;11.10;99.90;;;;;;5006398;28;20046;-67
2023/03/30 21:18:45;;;;;;;7.85;1.42;;;11.10;99.90;;;;;;5000333;28;20049;-66
2023/03/30 21:21:10;;;;;;;11.00;1.60;;;11.10;99.90;;;;;;4996877;28;20846;-66
2023/03/30 21:23:36;;;;;;;10.77;1.88;;;11.10;99.90;;;;;;4978321;28;20048;-65
2023/03/30 21:26:04;;;;;;;15.68;1.80;;;11.10;99.90;;;;;;4999639;28;20133;-66
2023/03/30 21:28:31;;;;;;;6.60;1.75;;;11.10;99.90;;;;;;4980615;28;20119;-66
2023/03/30 21:30:57;;;;;;;11.50;1.50;;;11.10;99.90;;;;;;5002505;28;20085;-66
2023/03/30 21:33:25;;;;;;;11.40;2.40;;;11.00;99.90;;;;;;4985884;28;20128;-66
2023/03/30 21:35:56;;;;;;;11.05;1.83;;;11.00;99.90;;;;;;5003427;28;20463;-67
2023/03/30 21:38:22;;;;;;;7.72;1.20;;;10.90;99.90;;;;;;4984940;28;20038;-66
2023/03/30 21:41:01;;;;;;;11.55;1.75;;;10.80;99.90;;;;;;4999127;28;20057;-65
2023/03/30 21:43:29;;;;;;;6.10;1.85;;;10.80;99.90;;;;;;4975672;28;20042;-67
2023/03/30 21:46:03;;;;;;;11.35;2.00;;;10.80;99.90;;;;;;4984222;28;20359;-66
2023/03/30 21:48:31;;;;;;;7.22;1.35;;;10.80;99.90;;;;;;4985929;28;20385;-66
2023/03/30 21:51:03;;;;;;;14.98;1.65;;;10.70;99.90;;;;;;5009110;28;20136;-68
2023/03/30 21:53:30;;;;;;;8.13;1.55;;;10.70;99.90;;;;;;5003218;28;20061;-66
2023/03/30 21:55:56;;;;;;;6.88;1.13;;;10.70;99.90;;;;;;5019783;28;20382;-65
2023/03/30 21:58:22;;;;;;;11.90;1.88;;;10.60;99.90;;;;;;5026173;28;20033;-66
2023/03/30 22:00:49;;;;;;;10.23;1.33;;;10.60;99.90;;;;;;5020103;28;20048;-65
2023/03/30 22:03:15;;;;;;;8.88;1.55;;;10.60;99.90;;;;;;5008130;28;20389;-65
2023/03/30 22:05:41;;;;;;;11.55;2.00;;;10.60;99.90;;;;;;5023927;28;20038;-70
2023/03/30 22:08:08;;;;;;;8.25;1.73;;;10.70;99.90;;;;;;5008383;28;20509;-66
2023/03/30 22:10:34;;;;;;;12.60;1.85;;;10.70;99.90;;;;;;5008144;28;20048;-67
2023/03/30 22:12:59;;;;;;;6.95;1.23;;;10.80;99.90;;;;;;5028679;28;20041;-66
2023/03/30 22:15:25;;;;;;;7.68;1.77;;;10.80;99.90;;;;;;5025625;28;20037;-65
2023/03/30 22:17:51;;;;;;;6.88;1.90;;;10.80;99.90;;;;;;5030627;28;20030;-65
2023/03/30 22:20:17;;;;;;;7.25;1.83;;;10.90;99.90;;;;;;5030843;28;20037;-67
2023/03/30 22:22:43;;;;;;;8.15;2.17;;;10.90;99.90;;;;;;5030156;28;20420;-66
2023/03/30 22:25:09;;;;;;;14.30;2.05;;;10.90;99.90;;;;;;5006261;28;20377;-67
2023/03/30 22:27:34;;;;;;;12.23;2.33;;;10.90;99.90;;;;;;5030072;28;20034;-67
2023/03/30 22:30:01;;;;;;;6.97;1.30;;;10.90;99.90;;;;;;5005315;28;20449;-66
2023/03/30 22:32:26;;;;;;;11.23;1.60;;;10.90;99.90;;;;;;4985923;28;20053;-67
2023/03/30 22:34:52;;;;;;;6.55;1.30;;;10.90;99.90;;;;;;5000030;28;20042;-66
2023/03/30 22:37:18;;;;;;;8.10;2.00;;;11.00;99.90;;;;;;4999954;28;20042;-66
2023/03/30 22:39:44;;;;;;;11.77;2.60;;;11.00;99.90;;;;;;5012004;28;20050;-66
2023/03/30 22:42:10;;;;;;;12.57;1.77;;;11.00;99.90;;;;;;5006045;28;20461;-67
2023/03/30 22:44:35;;;;;;;8.10;2.08;;;11.00;99.90;;;;;;5023406;28;20551;-66
2023/03/30 22:47:01;;;;;;;14.73;1.90;;;11.10;99.90;;;;;;5003654;28;20080;-67
2023/03/30 22:49:28;;;;;;;11.52;2.15;;;11.10;99.90;;;;;;5029221;28;20076;-66
2023/03/30 22:51:54;;;;;;;14.93;2.22;;;11.10;99.90;;;;;;5031648;28;20496;-65
2023/03/30 22:54:21;;;;;;;9.75;1.67;;;11.10;99.90;;;;;;5024540;28;20057;-66
2023/03/30 22:56:47;;;;;;;12.55;2.15;;;11.10;99.90;;;;;;5005267;28;20071;-65
2023/03/30 22:59:13;;;;;;;7.93;1.63;;;11.10;99.90;;;;;;5013242;28;20064;-67
2023/03/30 23:01:38;;;;;;;7.70;1.67;;;11.10;99.90;;;;;;5006723;28;20187;-67
2023/03/30 23:04:05;;;;;;;19.85;2.70;;;11.10;99.90;;;;;;5027491;28;20366;-66
2023/03/30 23:06:33;;;;;;;14.52;2.40;;;11.20;99.90;;;;;;5017544;28;20037;-67
2023/03/30 23:09:03;;;;;;;10.40;2.25;;;11.10;99.90;;;;;;5028996;28;20050;-66
2023/03/30 23:11:32;;;;;;;11.83;2.37;;;11.10;99.90;;;;;;5011354;28;20128;-65
2023/03/30 23:14:04;;;;;;;10.70;2.05;;;11.00;99.90;;;;;;5024844;28;20958;-66
2023/03/30 23:16:34;;;;;;;15.48;2.03;;;11.00;99.90;;;;;;5001079;28;20049;-66
2023/03/30 23:19:01;;;;;;;8.27;1.85;;;11.00;99.90;;;;;;5019478;28;20435;-67
2023/03/30 23:21:33;;;;;;;9.25;1.60;;;11.00;99.90;;;;;;5013899;28;20030;-67
2023/03/30 23:24:03;;;;;;;13.98;2.20;;;11.00;99.90;;;;;;5011914;28;20049;-67
2023/03/30 23:26:30;;;;;;;15.48;2.50;;;10.90;99.90;;;;;;5028344;28;20041;-66
2023/03/30 23:28:56;;;;;;;10.02;2.08;;;10.90;99.90;;;;;;5006945;28;20068;-65
2023/03/30 23:31:25;;;;;;;9.55;1.52;;;10.90;99.90;;;;;;5010323;28;20484;-65
2023/03/30 23:33:51;;;;;;;10.82;2.70;;;10.90;99.90;;;;;;5023757;28;20045;-66